createdAt,value
2019-02-18T00:01:22.319Z,5.27
2019-02-18T00:04:11.484Z,5.50
2019-02-18T00:06:41.658Z,5.30
2019-02-18T00:09:31.203Z,5.00
2019-02-18T00:12:20.657Z,6.33
2019-02-18T00:15:10.353Z,5.57
2019-02-18T00:17:59.819Z,5.53
2019-02-18T00:20:49.279Z,5.63
2019-02-18T00:23:38.793Z,6.00
2019-02-18T00:26:51.459Z,5.60
2019-02-18T00:29:40.752Z,5.30
2019-02-18T00:32:30.233Z,5.93
2019-02-18T00:35:00.415Z,5.70
2019-02-18T00:37:30.621Z,6.03
2019-02-18T00:40:03.089Z,5.83
2019-02-18T00:42:52.320Z,5.87
2019-02-18T00:48:56.189Z,6.00
2019-02-18T00:51:26.375Z,5.37
2019-02-18T00:54:15.843Z,5.90
2019-02-18T00:57:05.516Z,5.83
2019-02-18T00:59:55.160Z,5.57
2019-02-18T01:02:47.653Z,5.83
2019-02-18T01:05:55.970Z,5.37
2019-02-18T01:08:37.452Z,5.37
2019-02-18T01:11:07.627Z,6.00
2019-02-18T01:13:56.844Z,5.37
2019-02-18T01:16:26.973Z,6.00
2019-02-18T01:19:16.478Z,5.83
2019-02-18T01:22:05.838Z,5.53
2019-02-18T01:24:55.385Z,5.37
2019-02-18T01:27:44.576Z,6.20
2019-02-18T01:30:34.054Z,5.80
2019-02-18T01:33:04.201Z,5.70
2019-02-18T01:35:53.667Z,5.63
2019-02-18T01:38:43.232Z,5.67
2019-02-18T01:41:32.502Z,5.97
2019-02-18T01:44:22.345Z,6.40
2019-02-18T01:47:11.552Z,6.23
2019-02-18T01:50:01.031Z,5.30
2019-02-18T01:52:50.455Z,6.20
2019-02-18T01:55:39.732Z,5.40
2019-02-18T01:58:29.049Z,6.20
2019-02-18T02:01:18.535Z,5.53
2019-02-18T02:04:08.008Z,5.60
2019-02-18T02:06:57.494Z,5.73
2019-02-18T02:09:42.415Z,5.47
2019-02-18T02:12:24.048Z,5.90
2019-02-18T02:15:05.825Z,5.93
2019-02-18T02:17:46.099Z,5.23
2019-02-18T02:20:35.504Z,6.27
2019-02-18T02:23:26.021Z,5.87
2019-02-18T02:26:15.235Z,5.87
2019-02-18T02:29:04.712Z,6.80
2019-02-18T02:31:54.139Z,5.90
2019-02-18T02:34:43.638Z,5.50
2019-02-18T02:37:33.139Z,6.20
2019-02-18T02:40:22.341Z,6.93
2019-02-18T02:43:11.829Z,5.97
2019-02-18T02:46:01.058Z,6.10
2019-02-18T02:48:31.305Z,6.33
2019-02-18T02:51:20.815Z,6.87
2019-02-18T02:54:10.071Z,6.27
2019-02-18T02:56:59.521Z,6.17
2019-02-18T03:00:07.867Z,6.17
2019-02-18T03:02:57.289Z,5.63
2019-02-18T03:05:47.307Z,6.60
2019-02-18T03:08:39.203Z,6.57
2019-02-18T03:11:28.648Z,6.03
2019-02-18T03:14:17.954Z,6.30
2019-02-18T03:17:07.296Z,6.20
2019-02-18T03:19:56.834Z,6.30
2019-02-18T03:22:46.446Z,6.80
2019-02-18T03:25:35.640Z,6.33
2019-02-18T03:28:38.531Z,6.40
2019-02-18T03:31:28.449Z,6.37
2019-02-18T03:34:36.588Z,5.80
2019-02-18T03:37:25.880Z,5.80
2019-02-18T03:40:17.997Z,6.10
2019-02-18T03:43:07.468Z,7.17
2019-02-18T03:45:56.619Z,6.67
2019-02-18T03:48:45.834Z,6.97
2019-02-18T03:51:16.047Z,6.40
2019-02-18T03:54:05.479Z,6.17
2019-02-18T03:56:54.818Z,6.93
2019-02-18T03:59:44.317Z,6.60
2019-02-18T04:02:33.614Z,6.47
2019-02-18T04:05:04.417Z,6.93
2019-02-18T04:07:54.415Z,7.30
2019-02-18T04:10:35.912Z,7.23
2019-02-18T04:13:16.091Z,6.70
2019-02-18T04:16:05.161Z,7.13
2019-02-18T04:18:54.538Z,6.33
2019-02-18T04:21:43.694Z,7.37
2019-02-18T04:24:32.978Z,6.70
2019-02-18T04:27:22.432Z,7.70
2019-02-18T04:30:13.684Z,6.70
2019-02-18T04:33:03.126Z,6.90
2019-02-18T04:35:52.518Z,7.23
2019-02-18T04:38:42.024Z,6.87
2019-02-18T04:41:31.656Z,6.97
2019-02-18T04:44:21.732Z,7.10
2019-02-18T04:47:11.189Z,6.97
2019-02-18T04:50:00.653Z,7.37
2019-02-18T04:52:50.093Z,7.27
2019-02-18T04:55:39.562Z,7.27
2019-02-18T04:58:29.096Z,6.57
2019-02-18T05:00:59.272Z,7.20
2019-02-18T05:03:40.881Z,7.23
2019-02-18T05:06:22.399Z,6.90
2019-02-18T05:09:05.724Z,5.83
2019-02-18T05:11:47.161Z,7.17
2019-02-18T05:14:29.064Z,6.70
2019-02-18T05:16:59.226Z,6.50
2019-02-18T05:19:48.700Z,7.10
2019-02-18T05:22:37.898Z,6.87
2019-02-18T05:25:27.452Z,7.23
2019-02-18T05:28:16.987Z,7.23
2019-02-18T05:30:47.165Z,7.47
2019-02-18T05:33:19.712Z,7.23
2019-02-18T05:35:49.864Z,7.10
2019-02-18T05:38:39.387Z,7.70
2019-02-18T05:41:31.105Z,6.57
2019-02-18T05:44:00.480Z,7.30
2019-02-18T05:46:52.984Z,7.20
2019-02-18T05:49:23.258Z,8.00
2019-02-18T05:51:53.431Z,7.60
2019-02-18T05:54:24.290Z,7.83
2019-02-18T05:56:54.685Z,7.80
2019-02-18T05:59:24.812Z,8.40
2019-02-18T06:02:14.648Z,8.20
2019-02-18T06:04:56.929Z,8.40
2019-02-18T06:07:38.313Z,8.70
2019-02-18T06:10:19.898Z,9.90
2019-02-18T06:13:00.300Z,7.57
2019-02-18T06:15:50.755Z,8.00
2019-02-18T06:18:20.874Z,8.17
2019-02-18T06:20:51.057Z,8.33
2019-02-18T06:23:21.222Z,8.13
2019-02-18T06:26:10.525Z,8.10
2019-02-18T06:28:59.863Z,8.17
2019-02-18T06:31:32.030Z,8.07
2019-02-18T06:34:20.952Z,8.70
2019-02-18T06:37:10.124Z,7.67
2019-02-18T06:39:59.689Z,8.70
2019-02-18T06:42:29.855Z,8.23
2019-02-18T06:48:01.622Z,8.07
2019-02-18T06:50:50.837Z,7.43
2019-02-18T06:53:21.066Z,7.97
2019-02-18T06:55:51.485Z,7.60
2019-02-18T06:58:40.580Z,8.20
2019-02-18T07:01:41.205Z,7.90
2019-02-18T07:04:25.454Z,8.40
2019-02-18T07:07:01.782Z,8.17
2019-02-18T07:09:51.703Z,8.67
2019-02-18T07:12:41.051Z,7.63
2019-02-18T07:15:44.251Z,8.40
2019-02-18T07:18:25.737Z,8.40
2019-02-18T07:20:59.076Z,8.40
2019-02-18T07:23:48.347Z,8.73
2019-02-18T07:26:18.494Z,8.03
2019-02-18T07:28:49.023Z,8.13
2019-02-18T07:31:19.144Z,8.87
2019-02-18T07:33:49.692Z,8.93
2019-02-18T07:36:39.011Z,8.43
2019-02-18T07:39:09.260Z,8.17
2019-02-18T07:41:58.995Z,8.57
2019-02-18T07:44:48.258Z,8.13
2019-02-18T07:47:37.733Z,8.20
2019-02-18T07:50:08.922Z,8.63
2019-02-18T07:52:58.380Z,9.17
2019-02-18T07:55:47.589Z,8.33
2019-02-18T07:58:18.049Z,7.83
2019-02-18T08:00:48.511Z,7.97
2019-02-18T08:03:29.787Z,7.73
2019-02-18T08:06:09.764Z,7.90
2019-02-18T08:08:40.312Z,8.50
2019-02-18T08:11:12.737Z,8.00
2019-02-18T08:13:42.878Z,7.90
2019-02-18T08:16:13.040Z,7.13
2019-02-18T08:18:43.531Z,7.80
2019-02-18T08:21:13.683Z,7.50
2019-02-18T08:24:02.893Z,6.83
2019-02-18T08:26:33.028Z,7.20
2019-02-18T08:29:03.172Z,7.37
2019-02-18T08:31:33.852Z,7.30
2019-02-18T08:34:04.082Z,7.00
2019-02-18T08:36:34.281Z,6.80
2019-02-18T08:39:05.628Z,7.23
2019-02-18T08:41:36.371Z,7.00
2019-02-18T08:44:27.291Z,6.93
2019-02-18T08:46:57.533Z,7.00
2019-02-18T08:49:47.095Z,7.57
2019-02-18T08:52:17.459Z,7.03
2019-02-18T08:54:56.271Z,6.77
2019-02-18T08:57:19.646Z,6.33
2019-02-18T08:59:50.194Z,6.80
2019-02-18T09:02:39.631Z,6.30
2019-02-18T09:05:09.843Z,6.07
2019-02-18T09:08:00.489Z,5.90
2019-02-18T09:10:33.717Z,6.13
2019-02-18T09:13:05.110Z,6.40
2019-02-18T09:16:00.702Z,5.43
2019-02-18T09:18:49.894Z,5.60
2019-02-18T09:21:39.388Z,5.57
2019-02-18T09:24:28.457Z,6.23
2019-02-18T09:27:17.824Z,6.00
2019-02-18T09:30:07.294Z,5.47
2019-02-18T09:32:37.458Z,5.03
2019-02-18T09:35:07.766Z,4.87
2019-02-18T09:37:56.947Z,4.97
2019-02-18T09:40:51.195Z,5.53
2019-02-18T09:43:37.348Z,6.93
2019-02-18T09:46:26.877Z,6.87
2019-02-18T09:49:16.081Z,6.60
2019-02-18T09:52:05.526Z,6.83
2019-02-18T09:54:54.753Z,7.30
2019-02-18T09:57:44.275Z,6.63
2019-02-18T10:00:14.426Z,7.60
2019-02-18T10:03:03.606Z,8.03
2019-02-18T10:05:33.760Z,7.97
2019-02-18T10:08:03.900Z,7.77
2019-02-18T10:10:34.087Z,7.80
2019-02-18T10:13:04.425Z,7.67
2019-02-18T10:15:53.928Z,7.90
2019-02-18T10:18:43.443Z,8.03
2019-02-18T10:21:13.619Z,8.57
2019-02-18T10:23:44.556Z,7.60
2019-02-18T10:26:14.720Z,7.50
2019-02-18T10:28:44.894Z,8.43
2019-02-18T10:31:15.025Z,8.93
2019-02-18T10:34:04.472Z,8.57
2019-02-18T10:36:34.812Z,8.73
2019-02-18T10:39:06.194Z,9.33
2019-02-18T10:41:36.365Z,9.57
2019-02-18T10:44:06.779Z,9.47
2019-02-18T10:46:55.951Z,9.33
2019-02-18T10:49:45.393Z,8.97
2019-02-18T10:52:15.587Z,9.70
2019-02-18T10:54:46.029Z,9.93
2019-02-18T10:57:16.333Z,9.33
2019-02-18T10:59:46.508Z,9.37
2019-02-18T11:02:36.115Z,8.40
2019-02-18T11:05:25.638Z,8.10
2019-02-18T11:08:15.857Z,10.37
2019-02-18T11:11:05.352Z,8.90
2019-02-18T11:13:35.521Z,9.33
2019-02-18T11:16:05.726Z,9.57
2019-02-18T11:18:35.936Z,9.43
2019-02-18T11:21:25.134Z,8.17
2019-02-18T11:23:55.316Z,9.50
2019-02-18T11:26:44.809Z,8.63
2019-02-18T11:29:34.058Z,8.27
2019-02-18T11:32:04.239Z,8.53
2019-02-18T11:34:34.680Z,8.80
2019-02-18T11:37:04.923Z,9.13
2019-02-18T11:39:54.367Z,9.67
2019-02-18T11:42:43.530Z,7.87
2019-02-18T11:45:34.874Z,8.00
2019-02-18T11:48:45.133Z,8.73
2019-02-18T11:51:34.339Z,8.70
2019-02-18T11:54:04.537Z,8.90
2019-02-18T11:56:35.467Z,8.60
2019-02-18T11:59:24.755Z,8.57
2019-02-18T12:02:13.960Z,8.10
2019-02-18T12:04:44.141Z,7.77
2019-02-18T12:07:14.348Z,8.30
2019-02-18T12:09:44.976Z,8.33
2019-02-18T12:12:15.161Z,8.20
2019-02-18T12:14:46.717Z,8.40
2019-02-18T12:20:09.465Z,8.87
2019-02-18T12:22:58.685Z,8.60
2019-02-18T12:25:48.179Z,8.77
2019-02-18T12:28:37.445Z,9.07
2019-02-18T12:31:27.283Z,9.03
2019-02-18T12:34:16.464Z,8.73
2019-02-18T12:37:05.706Z,9.17
2019-02-18T12:39:35.861Z,9.60
2019-02-18T12:42:06.298Z,9.57
2019-02-18T12:44:36.459Z,9.40
2019-02-18T12:47:06.655Z,9.03
2019-02-18T12:49:36.891Z,8.13
2019-02-18T12:52:26.046Z,8.33
2019-02-18T12:55:07.514Z,8.73
2019-02-18T12:57:37.985Z,7.73
2019-02-18T13:00:27.249Z,7.83
2019-02-18T13:03:16.412Z,8.17
2019-02-18T13:05:46.885Z,7.17
2019-02-18T13:08:36.326Z,7.80
2019-02-18T13:11:06.505Z,8.17
2019-02-18T13:13:55.673Z,7.57
2019-02-18T13:16:44.870Z,6.50
2019-02-18T13:19:15.028Z,7.03
2019-02-18T13:21:45.465Z,7.53
2019-02-18T13:24:56.098Z,6.57
2019-02-18T13:27:26.343Z,6.80
2019-02-18T13:30:17.168Z,7.27
2019-02-18T13:33:15.448Z,7.33
2019-02-18T13:36:25.689Z,7.67
2019-02-18T13:39:15.097Z,6.93
2019-02-18T13:42:12.906Z,7.17
2019-02-18T13:44:45.532Z,6.83
2019-02-18T13:47:35.139Z,7.17
2019-02-18T13:50:06.200Z,7.23
2019-02-18T13:52:55.381Z,6.87
2019-02-18T13:58:25.727Z,6.53
2019-02-18T14:01:35.567Z,7.37
2019-02-18T14:04:05.750Z,7.10
2019-02-18T14:06:36.298Z,6.40
2019-02-18T14:09:09.515Z,6.83
2019-02-18T14:11:39.754Z,6.97
2019-02-18T14:17:26.892Z,6.13
2019-02-18T14:20:36.664Z,6.50
2019-02-18T14:23:07.368Z,6.30
2019-02-18T14:25:37.810Z,6.17
2019-02-18T14:28:27.042Z,6.43
2019-02-18T14:30:57.539Z,5.67
2019-02-18T14:33:46.704Z,6.60
2019-02-18T14:36:16.898Z,5.93
2019-02-18T14:38:47.825Z,5.97
2019-02-18T14:41:37.287Z,6.07
2019-02-18T14:44:26.529Z,5.73
2019-02-18T14:46:56.693Z,6.03
2019-02-18T14:49:45.884Z,6.30
2019-02-18T14:52:18.070Z,6.30
2019-02-18T14:54:48.252Z,5.50
2019-02-18T14:57:19.158Z,5.77
2019-02-18T15:03:05.141Z,4.97
2019-02-18T15:05:35.628Z,6.27
2019-02-18T15:08:05.760Z,5.60
2019-02-18T15:10:36.065Z,6.00
2019-02-18T15:13:25.670Z,5.17
2019-02-18T15:15:55.838Z,5.13
2019-02-18T15:18:26.148Z,4.90
2019-02-18T15:21:15.371Z,5.53
2019-02-18T15:23:45.922Z,5.33
2019-02-18T15:26:16.305Z,5.17
2019-02-18T15:28:46.502Z,5.10
2019-02-18T15:31:36.691Z,5.33
2019-02-18T15:34:26.639Z,5.00
2019-02-18T15:36:57.030Z,5.43
2019-02-18T15:39:46.850Z,5.30
2019-02-18T15:42:17.150Z,4.37
2019-02-18T15:44:48.251Z,4.60
2019-02-18T15:47:37.469Z,4.60
2019-02-18T15:50:28.055Z,4.23
2019-02-18T15:53:17.266Z,4.17
2019-02-18T15:56:06.693Z,4.37
2019-02-18T15:58:48.227Z,4.00
2019-02-18T16:01:18.446Z,4.13
2019-02-18T16:04:07.686Z,3.73
2019-02-18T16:06:56.887Z,4.17
2019-02-18T16:09:46.477Z,3.97
2019-02-18T16:12:16.603Z,4.20
2019-02-18T16:14:46.723Z,4.77
2019-02-18T16:17:37.862Z,5.07
2019-02-18T16:20:28.022Z,4.83
2019-02-18T16:23:17.576Z,5.13
2019-02-18T16:26:07.162Z,4.80
2019-02-18T16:28:56.583Z,4.03
2019-02-18T16:31:26.882Z,4.97
2019-02-18T16:37:05.485Z,4.63
2019-02-18T16:39:54.981Z,4.63
2019-02-18T16:42:27.903Z,4.43
2019-02-18T16:45:31.596Z,4.67
2019-02-18T16:48:08.732Z,4.70
2019-02-18T16:50:39.022Z,6.57
2019-02-18T16:53:28.449Z,5.93
2019-02-18T16:56:17.824Z,6.37
2019-02-18T16:59:00.627Z,5.60
2019-02-18T17:01:42.193Z,4.73
2019-02-18T17:04:12.336Z,5.47
2019-02-18T17:09:52.358Z,6.37
2019-02-18T17:12:22.496Z,5.27
2019-02-18T17:15:11.826Z,5.37
2019-02-18T17:17:42.381Z,5.83
2019-02-18T17:20:31.599Z,5.47
2019-02-18T17:23:21.105Z,5.27
2019-02-18T17:26:10.389Z,6.77
2019-02-18T17:28:59.660Z,4.80
2019-02-18T17:31:49.267Z,4.93
2019-02-18T17:34:38.679Z,4.77
2019-02-18T17:37:08.872Z,4.43
2019-02-18T17:39:42.327Z,5.20
2019-02-18T17:42:12.501Z,5.30
2019-02-18T17:44:42.719Z,5.30
2019-02-18T17:47:13.825Z,5.20
2019-02-18T17:49:43.942Z,5.07
2019-02-18T17:52:14.221Z,5.03
2019-02-18T17:55:03.461Z,5.33
2019-02-18T17:57:52.670Z,4.77
2019-02-18T18:03:19.644Z,5.20
2019-02-18T18:06:08.838Z,5.13
2019-02-18T18:08:58.264Z,4.87
2019-02-18T18:11:47.941Z,5.03
2019-02-18T18:14:18.338Z,5.00
2019-02-18T18:17:07.606Z,5.17
2019-02-18T18:19:37.756Z,5.17
2019-02-18T18:22:19.545Z,5.77
2019-02-18T18:25:01.274Z,5.13
2019-02-18T18:27:42.794Z,4.43
2019-02-18T18:30:24.859Z,4.53
2019-02-18T18:32:55.281Z,5.23
2019-02-18T18:35:44.501Z,5.03
2019-02-18T18:38:33.713Z,6.13
2019-02-18T18:41:24.045Z,5.03
2019-02-18T18:44:13.357Z,6.13
2019-02-18T18:47:02.547Z,5.13
2019-02-18T18:49:32.803Z,5.10
2019-02-18T18:52:03.008Z,5.70
2019-02-18T18:54:52.675Z,5.87
2019-02-18T18:57:23.485Z,5.77
2019-02-18T19:00:07.414Z,5.93
2019-02-18T19:02:38.197Z,5.73
2019-02-18T19:05:08.647Z,6.30
2019-02-18T19:07:39.352Z,6.30
2019-02-18T19:10:09.853Z,5.83
2019-02-18T19:12:41.214Z,6.23
2019-02-18T19:15:12.888Z,6.10
2019-02-18T19:17:43.116Z,6.87
2019-02-18T19:20:32.604Z,5.87
2019-02-18T19:23:02.896Z,5.50
2019-02-18T19:25:34.066Z,6.07
2019-02-18T19:28:23.283Z,5.90
2019-02-18T19:30:53.429Z,5.60
2019-02-18T19:33:42.758Z,5.77
2019-02-18T19:36:32.515Z,6.07
2019-02-18T19:42:34.829Z,5.93
2019-02-18T19:45:14.155Z,5.67
2019-02-18T19:48:26.246Z,5.60
2019-02-18T19:56:20.830Z,5.63
2019-02-18T19:58:51.117Z,6.50
2019-02-18T20:01:40.588Z,6.30
2019-02-18T20:04:10.810Z,6.10
2019-02-18T20:06:41.104Z,6.10
2019-02-18T20:09:15.792Z,6.13
2019-02-18T20:12:05.407Z,5.37
2019-02-18T20:14:35.784Z,5.63
2019-02-18T20:17:08.378Z,6.13
2019-02-18T20:19:57.858Z,5.93
2019-02-18T20:22:47.729Z,5.97
2019-02-18T20:25:17.999Z,5.17
2019-02-18T20:27:49.297Z,5.93
2019-02-18T20:30:19.673Z,5.50
2019-02-18T20:32:49.816Z,5.77
2019-02-18T20:35:20.158Z,5.90
2019-02-18T20:41:00.519Z,5.77
2019-02-18T20:43:50.144Z,6.50
2019-02-18T20:46:20.416Z,6.13
2019-02-18T20:48:50.936Z,5.57
2019-02-18T20:51:22.532Z,6.47
2019-02-18T20:54:12.122Z,5.90
2019-02-18T20:56:42.737Z,5.50
2019-02-18T20:59:13.022Z,5.17
2019-02-18T21:01:43.372Z,5.30
2019-02-18T21:04:13.935Z,5.27
2019-02-18T21:07:23.951Z,6.17
2019-02-18T21:10:13.439Z,6.30
2019-02-18T21:13:03.339Z,5.83
2019-02-18T21:15:34.319Z,5.67
2019-02-18T21:18:23.921Z,6.00
2019-02-18T21:20:54.131Z,7.07
2019-02-18T21:23:44.631Z,6.40
2019-02-18T21:26:15.412Z,6.70
2019-02-18T21:28:45.763Z,5.70
2019-02-18T21:31:19.763Z,6.77
2019-02-18T21:34:09.251Z,6.77
2019-02-18T21:36:39.797Z,6.53
2019-02-18T21:39:29.308Z,6.53
2019-02-18T21:42:18.944Z,6.07
2019-02-18T21:48:54.234Z,6.60
2019-02-18T21:51:24.401Z,6.70
2019-02-18T21:54:13.976Z,7.17
2019-02-18T21:56:44.145Z,7.73
2019-02-18T21:59:14.359Z,6.47
2019-02-18T22:01:44.526Z,6.40
2019-02-18T22:04:34.030Z,6.10
2019-02-18T22:07:23.323Z,6.13
2019-02-18T22:09:53.782Z,5.50
2019-02-18T22:12:24.070Z,5.80
2019-02-18T22:14:54.539Z,6.23
2019-02-18T22:17:24.917Z,6.30
2019-02-18T22:20:22.104Z,6.17
2019-02-18T22:23:11.299Z,5.67
2019-02-18T22:26:00.856Z,6.80
2019-02-18T22:28:50.421Z,6.33
2019-02-18T22:35:14.044Z,6.87
2019-02-18T22:38:03.559Z,7.73
2019-02-18T22:40:33.703Z,6.70
2019-02-18T22:43:03.852Z,6.50
2019-02-18T22:45:53.374Z,6.50
2019-02-18T22:48:23.529Z,6.00
2019-02-18T22:51:13.026Z,5.87
2019-02-18T22:53:45.071Z,7.00
2019-02-18T22:59:24.598Z,6.13
2019-02-18T23:01:56.069Z,6.80
2019-02-18T23:04:45.268Z,6.70
2019-02-18T23:07:15.560Z,5.90
2019-02-18T23:10:05.244Z,6.60
2019-02-18T23:12:36.877Z,6.23
2019-02-18T23:15:07.434Z,5.93
2019-02-18T23:17:57.018Z,7.00
2019-02-18T23:20:27.259Z,6.50
2019-02-18T23:22:57.894Z,5.90
2019-02-18T23:25:28.049Z,6.10
2019-02-18T23:28:17.397Z,5.67
2019-02-18T23:30:48.445Z,6.03
2019-02-18T23:33:18.614Z,5.63
2019-02-18T23:36:07.850Z,6.33
2019-02-18T23:38:57.048Z,6.13
2019-02-18T23:41:46.704Z,4.90
2019-02-18T23:44:36.196Z,5.87
2019-02-18T23:47:25.482Z,6.17
2019-02-18T23:49:55.603Z,6.13
2019-02-18T23:52:45.090Z,6.23
2019-02-18T23:55:34.592Z,5.80
2019-02-18T23:58:23.818Z,6.17
